Northeast Iowa Regional Airport
KCCY : now visible

Airfield :











YOU CAN JOIN US ON...

 
LOGIN :

Register | Disclaimer

   EN    FR    IT 

 









Legend :    VFR   Marginal VFR   IFR   Intensive IFR   Very Intensive IFR
Visi :
Ceiling :
>= 8 km
>= 3000ft
5 to 8 km
1000 to 3000 ft
1500m to 5 km
500 to 1000 ft
800 to 1500m
200 to 500 ft
< 800m
< 200 ft
Symbols :   Thunderstorms  Fog  Heavy snow  Heavy precipitations  Wind > 20 kt







- Airport Elevation : 1125 ft


KCCY - Northeast Iowa Regional

CURRENT METAR :
  • 211555Z AUTO 18016G22KT 10SM CLR 22/09 A2982 RMK AO2

EXPIRED METARs :
  • 211535Z AUTO 18017KT 10SM FEW160 21/08 A2982 RMK AO2
  • 211515Z AUTO 19011KT 10SM FEW120 FEW160 18/08 A2982 RMK AO2
  • 211455Z AUTO 16014G19KT 10SM FEW120 18/08 A2980 RMK AO2
  • 211435Z AUTO 16016KT 10SM CLR 17/07 A2981 RMK AO2
  • 211415Z AUTO 17015KT 10SM CLR 17/07 A2982 RMK AO2
  • 211335Z AUTO 18015KT 10SM FEW170 16/06 A2984 RMK AO2
  • 211315Z AUTO 19012KT 10SM FEW170 15/06 A2984 RMK AO2

TAF N/A
KZMP FIR / North America



MET'MAP, your aeronautical weather chart ! - Copyright ORBIFLY December 2007 - Disclaimer

ORBIFLY MET'MAP TEAM :

Programming & Development : Alexandra Zaïnal
Concept & Development : Baudouin d'Aumeries
Co-Development & Prog : Marc-Olivier Méhu
Technical & hardware support : Manuel Goepfert

Contact : metmap@orbifly.com




SOURCES & CREDITS :

   NOAA       Earth
Advisory